Time;durP1;ratioP1;P1;durP2;ratioP2;P2;SDS_P1;SDS_P2;PMS_P1;PMS_P2;Temp;Humidity;BMP_temperature;BMP_pressure;BME280_temperature;BME280_humidity;BME280_pressure;Samples;Min_cycle;Max_cycle;Signal;HPM_P1;HPM_P2
2022/01/17 00:00:20;;;;;;;18.73;8.07;;;5.20;99.90;;;;;;6730469;88;20308;-76
2022/01/17 00:10:21;;;;;;;22.00;8.93;;;5.20;99.90;;;;;;6722465;88;20956;-76
2022/01/17 00:20:26;;;;;;;19.75;9.23;;;5.20;99.90;;;;;;6728845;88;20175;-76
2022/01/17 00:30:26;;;;;;;20.00;9.48;;;5.20;99.90;;;;;;6724521;88;20609;-77
2022/01/17 00:40:27;;;;;;;18.48;8.82;;;5.10;99.90;;;;;;6733508;88;20208;-77
2022/01/17 00:50:28;;;;;;;18.27;8.65;;;5.20;99.90;;;;;;6725042;88;20211;-76
2022/01/17 01:00:29;;;;;;;19.48;9.20;;;5.20;99.90;;;;;;6724527;88;20613;-77
2022/01/17 01:10:30;;;;;;;19.60;9.23;;;5.20;99.90;;;;;;6720230;88;20198;-76
2022/01/17 01:30:45;;;;;;;20.30;10.07;;;5.10;99.90;;;;;;6725147;88;20257;-77
2022/01/17 01:40:49;;;;;;;23.27;10.73;;;4.90;99.90;;;;;;6729006;88;20210;-76
2022/01/17 01:50:49;;;;;;;22.95;10.52;;;4.90;99.90;;;;;;6720733;88;20228;-76
2022/01/17 02:00:51;;;;;;;26.73;12.00;;;5.00;99.90;;;;;;6722723;88;20780;-77
2022/01/17 02:10:52;;;;;;;27.20;11.93;;;4.90;99.90;;;;;;6726797;88;20507;-76
2022/01/17 02:21:11;;;;;;;26.62;12.37;;;5.00;99.90;;;;;;6726834;88;20211;-76
2022/01/17 02:31:12;;;;;;;28.02;13.35;;;4.90;99.90;;;;;;6723056;88;21074;-76
2022/01/17 02:41:13;;;;;;;33.58;13.52;;;5.00;99.90;;;;;;6717186;88;20189;-76
2022/01/17 02:51:13;;;;;;;32.40;14.10;;;5.00;99.90;;;;;;6726753;88;20613;-76
2022/01/17 03:01:26;;;;;;;29.37;14.15;;;5.00;99.90;;;;;;6716533;88;20672;-76
2022/01/17 03:11:28;;;;;;;23.52;12.65;;;5.00;99.90;;;;;;6725306;88;21519;-76
2022/01/17 03:21:32;;;;;;;28.67;12.37;;;5.10;99.90;;;;;;6726672;88;20292;-76
2022/01/17 03:31:32;;;;;;;28.58;12.43;;;5.20;99.90;;;;;;6728513;88;20237;-74
2022/01/17 03:41:33;;;;;;;30.50;12.60;;;5.20;99.90;;;;;;6733572;88;20169;-76
2022/01/17 03:51:33;;;;;;;29.65;13.05;;;5.20;99.90;;;;;;6728810;88;20939;-77
2022/01/17 04:01:34;;;;;;;27.85;12.70;;;5.30;99.90;;;;;;6724944;88;20178;-76
2022/01/17 04:11:34;;;;;;;30.33;14.00;;;5.20;99.90;;;;;;6722590;88;20327;-76
2022/01/17 04:21:36;;;;;;;26.55;12.70;;;5.20;99.90;;;;;;6721622;88;20626;-76
2022/01/17 04:31:36;;;;;;;31.67;12.85;;;5.30;99.90;;;;;;6721100;88;20222;-75
2022/01/17 04:41:39;;;;;;;26.67;12.20;;;5.20;99.90;;;;;;6730921;77;20316;-76
2022/01/17 04:51:40;;;;;;;24.27;11.20;;;5.30;99.90;;;;;;6733282;88;20583;-75
2022/01/17 05:01:40;;;;;;;31.67;12.40;;;5.20;99.90;;;;;;6703126;88;20233;-76
2022/01/17 05:11:42;;;;;;;31.75;12.70;;;5.20;99.90;;;;;;6716993;88;20910;-76
2022/01/17 05:21:43;;;;;;;30.73;11.93;;;5.10;99.90;;;;;;6716182;88;20220;-76
2022/01/17 05:31:43;;;;;;;33.55;12.93;;;5.10;99.90;;;;;;6716557;88;20337;-75
2022/01/17 05:41:44;;;;;;;33.22;12.65;;;5.20;99.90;;;;;;6728384;88;20225;-75
2022/01/17 05:51:45;;;;;;;32.73;12.57;;;5.20;99.90;;;;;;6718783;88;20211;-76
2022/01/17 06:01:45;;;;;;;28.87;11.80;;;5.20;99.90;;;;;;6737804;88;20946;-75
2022/01/17 06:11:46;;;;;;;27.45;11.43;;;5.20;99.90;;;;;;6720939;88;20198;-75
2022/01/17 06:21:47;;;;;;;22.97;10.17;;;5.20;99.90;;;;;;6716835;88;20714;-75
2022/01/17 06:31:47;;;;;;;24.12;9.80;;;5.30;99.90;;;;;;6718060;88;20495;-75
2022/01/17 06:41:48;;;;;;;20.95;10.13;;;5.30;99.90;;;;;;6716524;88;20312;-76
2022/01/17 06:51:48;;;;;;;26.75;9.98;;;5.30;99.90;;;;;;6728188;88;20210;-76
2022/01/17 07:01:49;;;;;;;25.30;10.27;;;5.30;99.90;;;;;;6727448;88;20363;-79
2022/01/17 07:11:50;;;;;;;24.17;10.75;;;5.30;99.90;;;;;;6721873;88;20695;-78
2022/01/17 07:21:51;;;;;;;20.80;8.48;;;5.40;99.90;;;;;;6718171;88;20622;-76
2022/01/17 07:31:53;;;;;;;26.52;9.20;;;5.40;99.90;;;;;;6713626;88;20212;-78
2022/01/17 07:41:53;;;;;;;20.40;9.00;;;5.50;99.90;;;;;;6715120;88;20368;-76
2022/01/17 07:51:59;;;;;;;20.70;7.62;;;5.50;99.90;;;;;;6711768;88;20191;-77
2022/01/17 08:02:00;;;;;;;17.30;8.00;;;5.60;99.90;;;;;;6708540;88;20173;-76
2022/01/17 08:12:03;;;;;;;16.83;7.80;;;5.60;99.90;;;;;;6720938;88;20604;-77
2022/01/17 08:22:06;;;;;;;19.98;7.57;;;5.70;99.90;;;;;;6724465;88;20192;-76
2022/01/17 08:32:07;;;;;;;16.70;7.00;;;5.80;99.90;;;;;;6721533;88;20205;-76
2022/01/17 08:42:10;;;;;;;15.70;6.82;;;5.90;99.90;;;;;;6719390;88;20214;-77
2022/01/17 08:52:13;;;;;;;15.07;7.05;;;6.00;99.90;;;;;;6718349;88;20729;-77
2022/01/17 09:02:13;;;;;;;15.27;6.97;;;6.20;99.90;;;;;;6723060;88;20645;-77
2022/01/17 09:12:15;;;;;;;15.07;6.33;;;6.20;99.90;;;;;;6728639;88;20214;-77
2022/01/17 09:22:16;;;;;;;14.20;6.40;;;6.20;99.90;;;;;;6720559;88;20501;-77
2022/01/17 09:32:16;;;;;;;19.70;8.32;;;6.30;99.90;;;;;;6712280;88;20228;-75
2022/01/17 09:42:17;;;;;;;27.42;11.32;;;6.40;99.90;;;;;;6716784;88;20201;-76
2022/01/17 10:02:26;;;;;;;29.42;12.45;;;6.60;99.90;;;;;;6733069;88;20798;-76
2022/01/17 10:12:27;;;;;;;29.85;13.43;;;7.10;99.90;;;;;;6727588;88;20200;-76
2022/01/17 10:22:40;;;;;;;28.02;12.73;;;7.40;99.90;;;;;;6733302;88;20247;-77
2022/01/17 10:53:07;;;;;;;27.45;12.75;;;7.30;99.90;;;;;;6744905;88;20271;-76
2022/01/17 11:03:13;;;;;;;29.15;13.75;;;7.00;99.90;;;;;;6743449;88;20198;-77
2022/01/17 11:13:16;;;;;;;27.55;12.02;;;7.00;99.90;;;;;;6744531;88;20205;-77
2022/01/17 11:23:21;;;;;;;24.87;11.30;;;7.20;99.90;;;;;;6745668;88;20242;-77
2022/01/17 11:33:22;;;;;;;25.77;11.77;;;8.00;99.90;;;;;;6747944;88;20211;-77
2022/01/17 11:43:34;;;;;;;26.85;12.60;;;8.10;99.90;;;;;;6742609;88;20264;-76
2022/01/17 11:53:36;;;;;;;27.60;12.77;;;7.60;99.90;;;;;;6757543;88;20188;-77
2022/01/17 12:03:56;;;;;;;29.67;13.40;;;7.40;99.90;;;;;;6759266;88;20239;-77
2022/01/17 12:14:02;;;;;;;25.62;12.13;;;7.30;99.90;;;;;;6759278;88;20207;-77
2022/01/17 12:24:15;;;;;;;32.70;12.63;;;7.10;99.90;;;;;;6759311;88;20220;-76
2022/01/17 12:34:24;;;;;;;33.50;14.45;;;7.10;99.90;;;;;;6759538;88;20626;-77
2022/01/17 12:44:30;;;;;;;29.55;14.95;;;6.90;99.90;;;;;;6761620;87;20262;-77
2022/01/17 12:54:33;;;;;;;33.53;14.03;;;6.80;99.90;;;;;;6759645;88;20194;-77
2022/01/17 13:04:33;;;;;;;37.67;15.65;;;6.70;99.90;;;;;;6762518;88;20249;-77
2022/01/17 13:14:34;;;;;;;29.42;13.77;;;6.70;99.90;;;;;;6762482;88;20212;-77
2022/01/17 13:24:36;;;;;;;31.45;13.85;;;6.70;99.90;;;;;;6766862;88;20181;-77
2022/01/17 13:34:38;;;;;;;34.80;14.70;;;6.70;99.90;;;;;;6763710;88;21128;-77
2022/01/17 13:44:39;;;;;;;37.55;16.40;;;6.70;99.90;;;;;;6770275;87;20197;-77
2022/01/17 13:54:42;;;;;;;43.47;17.52;;;6.60;99.90;;;;;;6763090;87;20211;-77
2022/01/17 14:04:43;;;;;;;40.80;16.75;;;6.40;99.90;;;;;;6762824;87;20192;-77
2022/01/17 14:14:53;;;;;;;37.10;16.47;;;6.40;99.90;;;;;;6762358;87;20274;-77
2022/01/17 14:24:54;;;;;;;37.47;16.02;;;6.40;99.90;;;;;;6763826;88;20552;-77
2022/01/17 14:34:58;;;;;;;35.72;17.37;;;6.30;99.90;;;;;;6768441;88;20187;-77
2022/01/17 14:45:00;;;;;;;37.97;16.45;;;6.40;99.90;;;;;;6761579;87;20176;-77
2022/01/17 15:05:04;;;;;;;36.92;16.30;;;6.40;99.90;;;;;;6760471;88;20402;-77
2022/01/17 15:15:05;;;;;;;35.50;16.90;;;6.40;99.90;;;;;;6758252;87;20562;-77
2022/01/17 15:25:06;;;;;;;34.42;15.35;;;6.30;99.90;;;;;;6759832;88;20212;-77
2022/01/17 15:35:09;;;;;;;48.08;16.80;;;6.50;99.90;;;;;;6761565;87;20172;-77
2022/01/17 15:45:10;;;;;;;39.30;15.40;;;6.40;99.90;;;;;;6763301;87;20277;-77
2022/01/17 15:55:11;;;;;;;40.55;16.17;;;6.50;99.90;;;;;;6757742;88;20768;-77
2022/01/17 16:05:11;;;;;;;33.70;14.05;;;6.50;99.90;;;;;;6759362;88;20193;-76
2022/01/17 16:15:12;;;;;;;37.88;14.63;;;6.60;99.90;;;;;;6755298;88;20370;-77
2022/01/17 16:25:13;;;;;;;34.90;14.73;;;6.60;99.90;;;;;;6758646;88;20199;-76
2022/01/17 16:35:13;;;;;;;39.10;14.55;;;6.60;99.90;;;;;;6758685;88;20250;-77
2022/01/17 16:45:14;;;;;;;35.30;14.70;;;6.70;99.90;;;;;;6754161;87;20322;-76
2022/01/17 16:55:14;;;;;;;42.13;15.02;;;6.70;99.90;;;;;;6755714;87;20245;-76
2022/01/17 17:05:15;;;;;;;37.00;14.68;;;6.60;99.90;;;;;;6754334;88;20205;-77
2022/01/17 17:15:16;;;;;;;34.28;13.62;;;6.70;99.90;;;;;;6751489;87;20215;-76
2022/01/17 17:25:16;;;;;;;39.70;14.38;;;6.70;99.90;;;;;;6746107;87;20678;-75
2022/01/17 17:35:17;;;;;;;39.40;15.85;;;6.70;99.90;;;;;;6756128;87;20208;-75
2022/01/17 17:45:18;;;;;;;34.53;13.23;;;6.80;99.90;;;;;;6751745;87;20265;-75
2022/01/17 17:55:19;;;;;;;38.95;12.80;;;6.70;99.90;;;;;;6753091;87;20222;-73
2022/01/17 18:05:19;;;;;;;32.53;12.73;;;6.90;99.90;;;;;;6747732;87;20176;-74
2022/01/17 18:15:20;;;;;;;33.47;13.10;;;6.90;99.90;;;;;;6753352;87;20281;-74
2022/01/17 18:25:21;;;;;;;42.35;15.25;;;7.00;99.90;;;;;;6748137;87;20967;-74
2022/01/17 18:35:21;;;;;;;34.20;14.35;;;6.90;99.90;;;;;;6745764;87;20213;-73
2022/01/17 18:45:22;;;;;;;34.03;13.05;;;6.80;99.90;;;;;;6746482;87;20183;-74
2022/01/17 18:55:24;;;;;;;35.53;12.90;;;7.00;99.90;;;;;;6751282;87;20591;-74
2022/01/17 19:05:25;;;;;;;38.55;13.10;;;7.10;99.90;;;;;;6748253;87;20659;-75
2022/01/17 19:15:26;;;;;;;34.13;12.07;;;7.10;99.90;;;;;;6751087;87;20209;-75
2022/01/17 19:25:27;;;;;;;32.03;12.07;;;7.10;99.90;;;;;;6749185;87;20225;-75
2022/01/17 19:35:27;;;;;;;30.35;11.77;;;7.10;99.90;;;;;;6749333;87;20651;-75
2022/01/17 19:45:28;;;;;;;32.03;11.45;;;7.20;99.90;;;;;;6754919;87;20188;-74
2022/01/17 19:55:29;;;;;;;30.95;11.32;;;7.20;99.90;;;;;;6752343;87;20184;-75
2022/01/17 20:05:30;;;;;;;36.20;11.55;;;7.10;99.90;;;;;;6750706;87;20433;-76
2022/01/17 20:15:31;;;;;;;32.40;11.68;;;7.10;99.90;;;;;;6752281;87;20183;-75
2022/01/17 20:25:32;;;;;;;33.78;12.18;;;7.10;99.90;;;;;;6748480;87;20279;-76
2022/01/17 20:35:34;;;;;;;32.58;13.05;;;7.10;99.90;;;;;;6747781;87;20616;-73
2022/01/17 20:45:35;;;;;;;33.15;12.10;;;7.00;99.90;;;;;;6742753;87;20250;-74
2022/01/17 20:55:36;;;;;;;28.17;10.45;;;7.00;99.90;;;;;;6740481;87;20234;-74
2022/01/17 21:05:36;;;;;;;29.83;10.27;;;7.00;99.90;;;;;;6744060;87;20458;-74
2022/01/17 21:15:37;;;;;;;30.12;10.23;;;7.10;99.90;;;;;;6744508;87;20199;-74
2022/01/17 21:25:41;;;;;;;34.37;10.17;;;7.10;99.90;;;;;;6748640;87;20246;-74
2022/01/17 21:35:41;;;;;;;35.45;9.13;;;7.10;99.90;;;;;;6750875;87;20487;-77
2022/01/17 21:45:44;;;;;;;28.13;8.20;;;7.10;99.90;;;;;;6751395;88;20184;-75
2022/01/17 21:55:45;;;;;;;28.00;8.68;;;7.00;99.90;;;;;;6750828;87;20543;-75
2022/01/17 22:05:45;;;;;;;33.00;8.60;;;7.00;99.90;;;;;;6752104;87;20198;-75
2022/01/17 22:15:46;;;;;;;29.75;8.20;;;7.00;99.90;;;;;;6753565;87;20264;-74
2022/01/17 22:25:46;;;;;;;35.95;8.20;;;6.90;99.90;;;;;;6753322;87;20203;-75
2022/01/17 22:35:47;;;;;;;22.70;6.87;;;6.80;99.90;;;;;;6748097;87;20180;-76
2022/01/17 22:45:48;;;;;;;24.00;5.90;;;6.70;99.90;;;;;;6752762;87;20192;-75
2022/01/17 22:55:48;;;;;;;25.77;5.35;;;6.90;99.90;;;;;;6751677;87;21018;-75
2022/01/17 23:05:49;;;;;;;19.05;5.18;;;6.80;99.90;;;;;;6751923;87;20196;-75
2022/01/17 23:15:51;;;;;;;23.20;4.78;;;6.90;99.90;;;;;;6754716;87;20222;-75
2022/01/17 23:25:52;;;;;;;16.98;4.57;;;6.90;99.90;;;;;;6761942;87;20204;-76
2022/01/17 23:35:53;;;;;;;24.70;4.47;;;6.90;99.90;;;;;;6751580;87;20279;-75
2022/01/17 23:45:54;;;;;;;21.02;4.65;;;6.90;99.90;;;;;;6754205;87;20584;-75
2022/01/17 23:55:56;;;;;;;18.80;3.90;;;7.00;99.90;;;;;;6750452;87;20184;-75
